sensor_id;sensor_type;location;lat;lon;timestamp;P1;durP1;ratioP1;P2;durP2;ratioP2
55134;SDS011;41031;44.750;11.308;2023-05-16T00:00:39;4.00;;;3.50;;
55134;SDS011;41031;44.750;11.308;2023-05-16T00:03:06;4.53;;;4.13;;
55134;SDS011;41031;44.750;11.308;2023-05-16T00:05:37;4.73;;;4.30;;
55134;SDS011;41031;44.750;11.308;2023-05-16T00:08:04;5.27;;;3.63;;
55134;SDS011;41031;44.750;11.308;2023-05-16T00:10:31;4.30;;;3.90;;
55134;SDS011;41031;44.750;11.308;2023-05-16T00:13:04;5.33;;;3.77;;
55134;SDS011;41031;44.750;11.308;2023-05-16T00:15:32;4.50;;;4.13;;
55134;SDS011;41031;44.750;11.308;2023-05-16T00:18:00;5.37;;;4.00;;
55134;SDS011;41031;44.750;11.308;2023-05-16T00:20:29;6.50;;;3.70;;
55134;SDS011;41031;44.750;11.308;2023-05-16T00:22:57;4.70;;;3.87;;
55134;SDS011;41031;44.750;11.308;2023-05-16T00:25:26;4.23;;;3.77;;
55134;SDS011;41031;44.750;11.308;2023-05-16T00:27:54;5.13;;;4.20;;
55134;SDS011;41031;44.750;11.308;2023-05-16T00:30:21;4.33;;;3.53;;
55134;SDS011;41031;44.750;11.308;2023-05-16T00:32:50;6.23;;;3.70;;
55134;SDS011;41031;44.750;11.308;2023-05-16T00:35:17;5.53;;;3.67;;
55134;SDS011;41031;44.750;11.308;2023-05-16T00:37:49;7.37;;;3.70;;
55134;SDS011;41031;44.750;11.308;2023-05-16T00:40:20;6.23;;;3.83;;
55134;SDS011;41031;44.750;11.308;2023-05-16T00:42:49;4.77;;;4.20;;
55134;SDS011;41031;44.750;11.308;2023-05-16T00:45:20;4.30;;;3.47;;
55134;SDS011;41031;44.750;11.308;2023-05-16T00:47:47;4.73;;;4.23;;
55134;SDS011;41031;44.750;11.308;2023-05-16T00:50:15;4.23;;;3.80;;
55134;SDS011;41031;44.750;11.308;2023-05-16T00:52:43;5.53;;;3.47;;
55134;SDS011;41031;44.750;11.308;2023-05-16T00:55:10;4.73;;;2.97;;
55134;SDS011;41031;44.750;11.308;2023-05-16T00:57:39;6.77;;;3.70;;
55134;SDS011;41031;44.750;11.308;2023-05-16T01:00:07;6.77;;;3.53;;
55134;SDS011;41031;44.750;11.308;2023-05-16T01:02:44;7.67;;;3.27;;
55134;SDS011;41031;44.750;11.308;2023-05-16T01:05:12;3.77;;;3.17;;
55134;SDS011;41031;44.750;11.308;2023-05-16T01:07:39;5.83;;;4.10;;
55134;SDS011;41031;44.750;11.308;2023-05-16T01:10:06;4.03;;;3.67;;
55134;SDS011;41031;44.750;11.308;2023-05-16T01:15:43;5.47;;;3.80;;
55134;SDS011;41031;44.750;11.308;2023-05-16T01:20:56;5.57;;;3.47;;
55134;SDS011;41031;44.750;11.308;2023-05-16T01:23:32;8.47;;;3.57;;
55134;SDS011;41031;44.750;11.308;2023-05-16T01:26:25;4.50;;;3.50;;
55134;SDS011;41031;44.750;11.308;2023-05-16T01:28:53;5.30;;;3.57;;
55134;SDS011;41031;44.750;11.308;2023-05-16T01:31:21;5.80;;;3.90;;
55134;SDS011;41031;44.750;11.308;2023-05-16T01:33:49;5.50;;;4.33;;
55134;SDS011;41031;44.750;11.308;2023-05-16T01:36:23;4.97;;;4.37;;
55134;SDS011;41031;44.750;11.308;2023-05-16T01:39:02;4.67;;;4.27;;
55134;SDS011;41031;44.750;11.308;2023-05-16T01:44:10;4.83;;;4.43;;
55134;SDS011;41031;44.750;11.308;2023-05-16T01:47:00;7.00;;;4.73;;
55134;SDS011;41031;44.750;11.308;2023-05-16T01:49:42;5.93;;;4.73;;
55134;SDS011;41031;44.750;11.308;2023-05-16T01:52:19;5.50;;;4.40;;
55134;SDS011;41031;44.750;11.308;2023-05-16T01:54:53;5.40;;;4.70;;
55134;SDS011;41031;44.750;11.308;2023-05-16T01:57:26;4.70;;;4.30;;
55134;SDS011;41031;44.750;11.308;2023-05-16T01:59:57;5.53;;;4.37;;
55134;SDS011;41031;44.750;11.308;2023-05-16T02:02:24;5.00;;;4.27;;
55134;SDS011;41031;44.750;11.308;2023-05-16T02:04:51;4.40;;;4.00;;
55134;SDS011;41031;44.750;11.308;2023-05-16T02:07:18;4.17;;;3.80;;
55134;SDS011;41031;44.750;11.308;2023-05-16T02:09:45;4.57;;;3.30;;
55134;SDS011;41031;44.750;11.308;2023-05-16T02:12:12;3.07;;;2.77;;
55134;SDS011;41031;44.750;11.308;2023-05-16T02:14:39;2.57;;;2.30;;
55134;SDS011;41031;44.750;11.308;2023-05-16T02:17:06;3.60;;;2.13;;
55134;SDS011;41031;44.750;11.308;2023-05-16T02:19:34;4.20;;;1.93;;
55134;SDS011;41031;44.750;11.308;2023-05-16T02:22:01;3.30;;;2.10;;
55134;SDS011;41031;44.750;11.308;2023-05-16T02:24:28;5.47;;;1.67;;
55134;SDS011;41031;44.750;11.308;2023-05-16T02:26:55;5.00;;;1.47;;
55134;SDS011;41031;44.750;11.308;2023-05-16T02:29:23;5.90;;;1.83;;
55134;SDS011;41031;44.750;11.308;2023-05-16T02:31:50;1.43;;;1.20;;
55134;SDS011;41031;44.750;11.308;2023-05-16T02:34:16;4.27;;;1.27;;
55134;SDS011;41031;44.750;11.308;2023-05-16T02:36:45;4.77;;;1.30;;
55134;SDS011;41031;44.750;11.308;2023-05-16T02:39:12;5.40;;;1.20;;
55134;SDS011;41031;44.750;11.308;2023-05-16T02:41:41;2.40;;;1.40;;
55134;SDS011;41031;44.750;11.308;2023-05-16T02:44:10;2.40;;;1.00;;
55134;SDS011;41031;44.750;11.308;2023-05-16T02:46:40;4.53;;;0.90;;
55134;SDS011;41031;44.750;11.308;2023-05-16T02:49:08;1.47;;;0.70;;
55134;SDS011;41031;44.750;11.308;2023-05-16T02:51:37;4.30;;;1.20;;
55134;SDS011;41031;44.750;11.308;2023-05-16T02:54:05;3.13;;;1.53;;
55134;SDS011;41031;44.750;11.308;2023-05-16T02:56:35;3.73;;;0.93;;
55134;SDS011;41031;44.750;11.308;2023-05-16T02:59:03;2.43;;;0.80;;
55134;SDS011;41031;44.750;11.308;2023-05-16T03:01:30;3.53;;;0.80;;
55134;SDS011;41031;44.750;11.308;2023-05-16T03:03:57;2.27;;;0.83;;
55134;SDS011;41031;44.750;11.308;2023-05-16T03:06:24;4.30;;;1.47;;
55134;SDS011;41031;44.750;11.308;2023-05-16T03:08:53;2.63;;;0.80;;
55134;SDS011;41031;44.750;11.308;2023-05-16T03:11:20;6.83;;;0.93;;
55134;SDS011;41031;44.750;11.308;2023-05-16T03:13:49;3.27;;;1.03;;
55134;SDS011;41031;44.750;11.308;2023-05-16T03:16:16;6.90;;;1.23;;
55134;SDS011;41031;44.750;11.308;2023-05-16T03:18:43;3.87;;;0.93;;
55134;SDS011;41031;44.750;11.308;2023-05-16T03:21:11;2.50;;;1.00;;
55134;SDS011;41031;44.750;11.308;2023-05-16T03:23:43;3.50;;;1.03;;
55134;SDS011;41031;44.750;11.308;2023-05-16T03:26:10;4.20;;;1.50;;
55134;SDS011;41031;44.750;11.308;2023-05-16T03:28:39;9.77;;;1.90;;
55134;SDS011;41031;44.750;11.308;2023-05-16T03:31:06;8.23;;;1.57;;
55134;SDS011;41031;44.750;11.308;2023-05-16T03:33:33;2.50;;;1.40;;
55134;SDS011;41031;44.750;11.308;2023-05-16T03:36:00;6.10;;;1.60;;
55134;SDS011;41031;44.750;11.308;2023-05-16T03:38:27;4.10;;;1.20;;
55134;SDS011;41031;44.750;11.308;2023-05-16T03:40:57;8.53;;;1.30;;
55134;SDS011;41031;44.750;11.308;2023-05-16T03:43:24;1.90;;;0.93;;
55134;SDS011;41031;44.750;11.308;2023-05-16T03:45:51;7.57;;;1.00;;
55134;SDS011;41031;44.750;11.308;2023-05-16T03:48:18;8.73;;;1.83;;
55134;SDS011;41031;44.750;11.308;2023-05-16T03:50:46;6.40;;;1.20;;
55134;SDS011;41031;44.750;11.308;2023-05-16T03:53:14;6.60;;;1.97;;
55134;SDS011;41031;44.750;11.308;2023-05-16T03:55:44;2.33;;;1.10;;
55134;SDS011;41031;44.750;11.308;2023-05-16T03:58:16;3.93;;;1.47;;
55134;SDS011;41031;44.750;11.308;2023-05-16T04:00:43;3.60;;;1.00;;
55134;SDS011;41031;44.750;11.308;2023-05-16T04:03:12;3.20;;;1.03;;
55134;SDS011;41031;44.750;11.308;2023-05-16T04:05:39;2.40;;;1.33;;
55134;SDS011;41031;44.750;11.308;2023-05-16T04:08:08;1.80;;;1.20;;
55134;SDS011;41031;44.750;11.308;2023-05-16T04:10:35;3.67;;;2.03;;
55134;SDS011;41031;44.750;11.308;2023-05-16T04:13:02;3.63;;;1.37;;
55134;SDS011;41031;44.750;11.308;2023-05-16T04:15:30;4.27;;;1.30;;
55134;SDS011;41031;44.750;11.308;2023-05-16T04:17:58;3.77;;;1.07;;
55134;SDS011;41031;44.750;11.308;2023-05-16T04:20:25;1.57;;;1.33;;
55134;SDS011;41031;44.750;11.308;2023-05-16T04:22:54;3.57;;;1.13;;
55134;SDS011;41031;44.750;11.308;2023-05-16T04:25:21;2.80;;;1.53;;
55134;SDS011;41031;44.750;11.308;2023-05-16T04:27:48;5.27;;;1.73;;
55134;SDS011;41031;44.750;11.308;2023-05-16T04:30:15;3.10;;;1.33;;
55134;SDS011;41031;44.750;11.308;2023-05-16T04:32:42;1.50;;;1.33;;
55134;SDS011;41031;44.750;11.308;2023-05-16T04:35:09;5.87;;;1.70;;
55134;SDS011;41031;44.750;11.308;2023-05-16T04:37:36;4.97;;;1.30;;
55134;SDS011;41031;44.750;11.308;2023-05-16T04:40:03;1.10;;;1.00;;
55134;SDS011;41031;44.750;11.308;2023-05-16T04:42:33;2.70;;;1.50;;
55134;SDS011;41031;44.750;11.308;2023-05-16T04:45:00;4.60;;;1.40;;
55134;SDS011;41031;44.750;11.308;2023-05-16T04:47:28;3.27;;;1.27;;
55134;SDS011;41031;44.750;11.308;2023-05-16T04:50:04;2.27;;;1.20;;
55134;SDS011;41031;44.750;11.308;2023-05-16T04:52:33;1.90;;;1.60;;
55134;SDS011;41031;44.750;11.308;2023-05-16T04:55:01;3.90;;;1.30;;
55134;SDS011;41031;44.750;11.308;2023-05-16T04:57:30;2.60;;;1.40;;
55134;SDS011;41031;44.750;11.308;2023-05-16T04:59:57;1.67;;;1.50;;
55134;SDS011;41031;44.750;11.308;2023-05-16T05:02:23;2.50;;;1.13;;
55134;SDS011;41031;44.750;11.308;2023-05-16T05:04:50;4.53;;;2.20;;
55134;SDS011;41031;44.750;11.308;2023-05-16T05:07:21;5.97;;;1.90;;
55134;SDS011;41031;44.750;11.308;2023-05-16T05:09:48;3.07;;;1.43;;
55134;SDS011;41031;44.750;11.308;2023-05-16T05:12:17;2.37;;;1.17;;
55134;SDS011;41031;44.750;11.308;2023-05-16T05:14:44;6.13;;;1.30;;
55134;SDS011;41031;44.750;11.308;2023-05-16T05:17:11;2.60;;;1.30;;
55134;SDS011;41031;44.750;11.308;2023-05-16T05:19:40;3.67;;;1.53;;
55134;SDS011;41031;44.750;11.308;2023-05-16T05:22:07;1.80;;;1.40;;
55134;SDS011;41031;44.750;11.308;2023-05-16T05:24:34;2.17;;;1.40;;
55134;SDS011;41031;44.750;11.308;2023-05-16T05:27:01;3.70;;;1.50;;
55134;SDS011;41031;44.750;11.308;2023-05-16T05:29:28;4.10;;;1.70;;
55134;SDS011;41031;44.750;11.308;2023-05-16T05:31:55;2.07;;;1.30;;
55134;SDS011;41031;44.750;11.308;2023-05-16T05:34:22;2.07;;;1.57;;
55134;SDS011;41031;44.750;11.308;2023-05-16T05:36:52;1.73;;;1.63;;
55134;SDS011;41031;44.750;11.308;2023-05-16T05:39:19;12.93;;;2.30;;
55134;SDS011;41031;44.750;11.308;2023-05-16T05:41:46;2.60;;;1.60;;
55134;SDS011;41031;44.750;11.308;2023-05-16T05:44:13;3.57;;;1.60;;
55134;SDS011;41031;44.750;11.308;2023-05-16T05:46:40;2.73;;;1.60;;
55134;SDS011;41031;44.750;11.308;2023-05-16T05:49:10;7.47;;;2.00;;
55134;SDS011;41031;44.750;11.308;2023-05-16T05:51:38;2.23;;;1.23;;
55134;SDS011;41031;44.750;11.308;2023-05-16T05:54:07;2.87;;;1.63;;
55134;SDS011;41031;44.750;11.308;2023-05-16T05:56:34;4.70;;;1.57;;
55134;SDS011;41031;44.750;11.308;2023-05-16T05:59:05;4.20;;;1.50;;
55134;SDS011;41031;44.750;11.308;2023-05-16T06:01:32;5.30;;;1.73;;
55134;SDS011;41031;44.750;11.308;2023-05-16T06:03:59;2.00;;;1.20;;
55134;SDS011;41031;44.750;11.308;2023-05-16T06:06:27;1.77;;;1.40;;
55134;SDS011;41031;44.750;11.308;2023-05-16T06:08:54;3.47;;;1.63;;
55134;SDS011;41031;44.750;11.308;2023-05-16T06:11:21;4.57;;;1.40;;
55134;SDS011;41031;44.750;11.308;2023-05-16T06:13:48;3.87;;;1.50;;
55134;SDS011;41031;44.750;11.308;2023-05-16T06:16:15;2.50;;;1.53;;
55134;SDS011;41031;44.750;11.308;2023-05-16T06:18:44;2.20;;;1.50;;
55134;SDS011;41031;44.750;11.308;2023-05-16T06:21:12;2.00;;;1.37;;
55134;SDS011;41031;44.750;11.308;2023-05-16T06:23:39;3.03;;;1.30;;
55134;SDS011;41031;44.750;11.308;2023-05-16T06:26:06;3.20;;;1.80;;
55134;SDS011;41031;44.750;11.308;2023-05-16T06:28:32;1.93;;;1.47;;
55134;SDS011;41031;44.750;11.308;2023-05-16T06:31:00;2.70;;;1.90;;
55134;SDS011;41031;44.750;11.308;2023-05-16T06:33:27;2.10;;;1.60;;
55134;SDS011;41031;44.750;11.308;2023-05-16T06:35:55;2.20;;;2.00;;
55134;SDS011;41031;44.750;11.308;2023-05-16T06:38:22;2.10;;;1.60;;
55134;SDS011;41031;44.750;11.308;2023-05-16T06:40:49;4.67;;;1.77;;
55134;SDS011;41031;44.750;11.308;2023-05-16T06:43:16;3.00;;;1.97;;
55134;SDS011;41031;44.750;11.308;2023-05-16T06:45:43;3.43;;;1.67;;
55134;SDS011;41031;44.750;11.308;2023-05-16T06:48:14;2.77;;;1.60;;
55134;SDS011;41031;44.750;11.308;2023-05-16T06:50:41;5.53;;;1.70;;
55134;SDS011;41031;44.750;11.308;2023-05-16T06:53:08;4.50;;;1.70;;
55134;SDS011;41031;44.750;11.308;2023-05-16T06:55:37;2.00;;;1.80;;
55134;SDS011;41031;44.750;11.308;2023-05-16T06:58:04;3.37;;;1.30;;
55134;SDS011;41031;44.750;11.308;2023-05-16T07:00:31;2.73;;;1.47;;
55134;SDS011;41031;44.750;11.308;2023-05-16T07:02:58;1.90;;;1.80;;
55134;SDS011;41031;44.750;11.308;2023-05-16T07:05:31;2.30;;;1.77;;
55134;SDS011;41031;44.750;11.308;2023-05-16T07:07:58;3.47;;;2.00;;
55134;SDS011;41031;44.750;11.308;2023-05-16T07:10:33;2.50;;;1.77;;
55134;SDS011;41031;44.750;11.308;2023-05-16T07:13:00;2.57;;;2.10;;
55134;SDS011;41031;44.750;11.308;2023-05-16T07:15:30;2.63;;;2.10;;
55134;SDS011;41031;44.750;11.308;2023-05-16T07:17:57;2.10;;;1.70;;
55134;SDS011;41031;44.750;11.308;2023-05-16T07:20:24;2.50;;;1.40;;
55134;SDS011;41031;44.750;11.308;2023-05-16T07:22:51;2.30;;;2.10;;
55134;SDS011;41031;44.750;11.308;2023-05-16T07:25:18;7.20;;;2.23;;
55134;SDS011;41031;44.750;11.308;2023-05-16T07:27:45;2.97;;;2.33;;
55134;SDS011;41031;44.750;11.308;2023-05-16T07:30:15;1.67;;;1.57;;
55134;SDS011;41031;44.750;11.308;2023-05-16T07:32:44;4.17;;;1.60;;
55134;SDS011;41031;44.750;11.308;2023-05-16T07:35:13;1.97;;;1.77;;
55134;SDS011;41031;44.750;11.308;2023-05-16T07:37:40;3.13;;;1.60;;
55134;SDS011;41031;44.750;11.308;2023-05-16T07:40:09;2.63;;;1.60;;
55134;SDS011;41031;44.750;11.308;2023-05-16T07:42:36;2.40;;;1.97;;
55134;SDS011;41031;44.750;11.308;2023-05-16T07:45:04;3.00;;;2.37;;
55134;SDS011;41031;44.750;11.308;2023-05-16T07:47:32;7.47;;;1.80;;
55134;SDS011;41031;44.750;11.308;2023-05-16T07:50:00;4.97;;;1.80;;
55134;SDS011;41031;44.750;11.308;2023-05-16T07:52:28;2.10;;;1.90;;
55134;SDS011;41031;44.750;11.308;2023-05-16T07:54:57;3.70;;;2.73;;
55134;SDS011;41031;44.750;11.308;2023-05-16T07:57:24;2.63;;;2.20;;
55134;SDS011;41031;44.750;11.308;2023-05-16T07:59:51;2.30;;;2.10;;
55134;SDS011;41031;44.750;11.308;2023-05-16T08:02:18;2.53;;;2.30;;
55134;SDS011;41031;44.750;11.308;2023-05-16T08:04:46;2.17;;;1.80;;
55134;SDS011;41031;44.750;11.308;2023-05-16T08:07:14;2.37;;;2.17;;
55134;SDS011;41031;44.750;11.308;2023-05-16T08:09:41;3.20;;;2.37;;
55134;SDS011;41031;44.750;11.308;2023-05-16T08:12:11;3.33;;;2.30;;
55134;SDS011;41031;44.750;11.308;2023-05-16T08:14:38;3.30;;;2.30;;
55134;SDS011;41031;44.750;11.308;2023-05-16T08:17:08;3.20;;;2.50;;
55134;SDS011;41031;44.750;11.308;2023-05-16T08:19:38;2.33;;;2.03;;
55134;SDS011;41031;44.750;11.308;2023-05-16T08:22:08;2.47;;;2.20;;
55134;SDS011;41031;44.750;11.308;2023-05-16T08:24:37;2.53;;;1.90;;
55134;SDS011;41031;44.750;11.308;2023-05-16T08:27:06;3.73;;;2.50;;
55134;SDS011;41031;44.750;11.308;2023-05-16T08:29:34;2.60;;;1.90;;
55134;SDS011;41031;44.750;11.308;2023-05-16T08:32:07;2.47;;;1.90;;
55134;SDS011;41031;44.750;11.308;2023-05-16T08:34:34;4.03;;;2.23;;
55134;SDS011;41031;44.750;11.308;2023-05-16T08:37:05;7.87;;;2.20;;
55134;SDS011;41031;44.750;11.308;2023-05-16T08:39:32;3.63;;;1.90;;
55134;SDS011;41031;44.750;11.308;2023-05-16T08:41:59;3.30;;;2.27;;
55134;SDS011;41031;44.750;11.308;2023-05-16T08:44:29;2.70;;;2.00;;
55134;SDS011;41031;44.750;11.308;2023-05-16T08:46:56;5.20;;;2.27;;
55134;SDS011;41031;44.750;11.308;2023-05-16T08:49:26;1.87;;;1.73;;
55134;SDS011;41031;44.750;11.308;2023-05-16T08:51:55;2.20;;;2.00;;
55134;SDS011;41031;44.750;11.308;2023-05-16T08:54:25;2.60;;;1.97;;
55134;SDS011;41031;44.750;11.308;2023-05-16T08:56:55;3.83;;;2.27;;
55134;SDS011;41031;44.750;11.308;2023-05-16T08:59:23;2.80;;;2.00;;
55134;SDS011;41031;44.750;11.308;2023-05-16T09:01:51;1.87;;;1.77;;
55134;SDS011;41031;44.750;11.308;2023-05-16T09:04:18;4.00;;;2.30;;
55134;SDS011;41031;44.750;11.308;2023-05-16T09:06:46;2.50;;;2.30;;
55134;SDS011;41031;44.750;11.308;2023-05-16T09:09:13;2.37;;;1.93;;
55134;SDS011;41031;44.750;11.308;2023-05-16T09:11:41;6.83;;;2.20;;
55134;SDS011;41031;44.750;11.308;2023-05-16T09:14:08;2.50;;;2.30;;
55134;SDS011;41031;44.750;11.308;2023-05-16T09:16:37;8.93;;;2.47;;
55134;SDS011;41031;44.750;11.308;2023-05-16T09:19:05;2.20;;;1.60;;
55134;SDS011;41031;44.750;11.308;2023-05-16T09:21:32;2.40;;;2.00;;
55134;SDS011;41031;44.750;11.308;2023-05-16T09:24:03;7.70;;;2.30;;
55134;SDS011;41031;44.750;11.308;2023-05-16T09:26:32;2.80;;;1.77;;
55134;SDS011;41031;44.750;11.308;2023-05-16T09:29:00;2.57;;;2.37;;
55134;SDS011;41031;44.750;11.308;2023-05-16T09:31:28;2.93;;;2.00;;
55134;SDS011;41031;44.750;11.308;2023-05-16T09:34:10;4.13;;;2.50;;
55134;SDS011;41031;44.750;11.308;2023-05-16T09:36:38;3.20;;;2.47;;
55134;SDS011;41031;44.750;11.308;2023-05-16T09:39:08;2.70;;;2.10;;
55134;SDS011;41031;44.750;11.308;2023-05-16T09:41:36;2.37;;;2.17;;
55134;SDS011;41031;44.750;11.308;2023-05-16T09:44:06;4.57;;;2.30;;
55134;SDS011;41031;44.750;11.308;2023-05-16T09:46:34;5.20;;;2.50;;
55134;SDS011;41031;44.750;11.308;2023-05-16T09:49:02;7.17;;;2.77;;
55134;SDS011;41031;44.750;11.308;2023-05-16T09:51:32;2.57;;;1.97;;
55134;SDS011;41031;44.750;11.308;2023-05-16T09:53:59;2.97;;;2.00;;
55134;SDS011;41031;44.750;11.308;2023-05-16T09:56:26;3.67;;;2.30;;
55134;SDS011;41031;44.750;11.308;2023-05-16T09:58:55;4.37;;;2.50;;
55134;SDS011;41031;44.750;11.308;2023-05-16T10:01:22;2.80;;;2.03;;
55134;SDS011;41031;44.750;11.308;2023-05-16T10:03:52;3.60;;;2.00;;
55134;SDS011;41031;44.750;11.308;2023-05-16T10:06:19;2.67;;;2.43;;
55134;SDS011;41031;44.750;11.308;2023-05-16T10:08:48;2.10;;;1.90;;
55134;SDS011;41031;44.750;11.308;2023-05-16T10:11:18;2.53;;;1.67;;
55134;SDS011;41031;44.750;11.308;2023-05-16T10:13:45;2.80;;;1.80;;
55134;SDS011;41031;44.750;11.308;2023-05-16T10:16:19;5.90;;;2.30;;
55134;SDS011;41031;44.750;11.308;2023-05-16T10:18:49;4.10;;;2.37;;
55134;SDS011;41031;44.750;11.308;2023-05-16T10:21:20;5.43;;;2.07;;
55134;SDS011;41031;44.750;11.308;2023-05-16T10:23:51;2.57;;;2.13;;
55134;SDS011;41031;44.750;11.308;2023-05-16T10:26:22;4.83;;;2.43;;
55134;SDS011;41031;44.750;11.308;2023-05-16T10:28:49;3.33;;;2.73;;
55134;SDS011;41031;44.750;11.308;2023-05-16T10:31:17;4.37;;;2.60;;
55134;SDS011;41031;44.750;11.308;2023-05-16T10:33:46;7.00;;;2.90;;
55134;SDS011;41031;44.750;11.308;2023-05-16T10:36:13;4.43;;;2.40;;
55134;SDS011;41031;44.750;11.308;2023-05-16T10:38:41;4.03;;;2.70;;
55134;SDS011;41031;44.750;11.308;2023-05-16T10:41:13;4.20;;;2.43;;
55134;SDS011;41031;44.750;11.308;2023-05-16T10:43:43;3.53;;;2.50;;
55134;SDS011;41031;44.750;11.308;2023-05-16T10:46:21;9.57;;;2.37;;
55134;SDS011;41031;44.750;11.308;2023-05-16T10:48:49;2.53;;;2.20;;
55134;SDS011;41031;44.750;11.308;2023-05-16T10:51:35;3.63;;;2.50;;
55134;SDS011;41031;44.750;11.308;2023-05-16T10:54:07;4.93;;;2.37;;
55134;SDS011;41031;44.750;11.308;2023-05-16T10:56:36;2.57;;;2.37;;
55134;SDS011;41031;44.750;11.308;2023-05-16T10:59:24;5.80;;;2.53;;
55134;SDS011;41031;44.750;11.308;2023-05-16T11:01:53;2.50;;;2.30;;
55134;SDS011;41031;44.750;11.308;2023-05-16T11:04:21;4.07;;;2.10;;
55134;SDS011;41031;44.750;11.308;2023-05-16T11:06:49;3.20;;;2.10;;
55134;SDS011;41031;44.750;11.308;2023-05-16T11:09:24;3.27;;;2.30;;
55134;SDS011;41031;44.750;11.308;2023-05-16T11:11:54;3.87;;;2.30;;
55134;SDS011;41031;44.750;11.308;2023-05-16T11:17:15;2.93;;;1.60;;
55134;SDS011;41031;44.750;11.308;2023-05-16T11:19:52;1.90;;;1.60;;
55134;SDS011;41031;44.750;11.308;2023-05-16T11:24:58;1.73;;;1.40;;
55134;SDS011;41031;44.750;11.308;2023-05-16T11:27:31;1.57;;;1.40;;
55134;SDS011;41031;44.750;11.308;2023-05-16T11:32:32;1.40;;;1.30;;
55134;SDS011;41031;44.750;11.308;2023-05-16T11:35:01;3.60;;;1.43;;
55134;SDS011;41031;44.750;11.308;2023-05-16T11:37:33;1.43;;;1.20;;
55134;SDS011;41031;44.750;11.308;2023-05-16T11:40:07;1.50;;;1.10;;
55134;SDS011;41031;44.750;11.308;2023-05-16T11:45:14;1.40;;;1.00;;
55134;SDS011;41031;44.750;11.308;2023-05-16T11:47:43;4.50;;;1.20;;
55134;SDS011;41031;44.750;11.308;2023-05-16T11:52:43;1.10;;;1.00;;
55134;SDS011;41031;44.750;11.308;2023-05-16T11:55:11;2.67;;;1.07;;
55134;SDS011;41031;44.750;11.308;2023-05-16T11:57:53;1.93;;;0.97;;
55134;SDS011;41031;44.750;11.308;2023-05-16T12:00:32;3.43;;;1.43;;
55134;SDS011;41031;44.750;11.308;2023-05-16T12:03:00;4.23;;;1.07;;
55134;SDS011;41031;44.750;11.308;2023-05-16T12:05:31;0.97;;;0.83;;
55134;SDS011;41031;44.750;11.308;2023-05-16T12:08:00;1.63;;;0.80;;
55134;SDS011;41031;44.750;11.308;2023-05-16T12:10:32;0.90;;;0.80;;
55134;SDS011;41031;44.750;11.308;2023-05-16T12:13:00;1.30;;;0.70;;
55134;SDS011;41031;44.750;11.308;2023-05-16T12:15:29;3.60;;;0.80;;
55134;SDS011;41031;44.750;11.308;2023-05-16T12:17:56;0.80;;;0.80;;
55134;SDS011;41031;44.750;11.308;2023-05-16T12:20:24;3.53;;;1.00;;
55134;SDS011;41031;44.750;11.308;2023-05-16T12:22:56;4.27;;;0.90;;
55134;SDS011;41031;44.750;11.308;2023-05-16T12:28:07;2.50;;;0.90;;
55134;SDS011;41031;44.750;11.308;2023-05-16T12:30:35;0.87;;;0.70;;
55134;SDS011;41031;44.750;11.308;2023-05-16T12:33:10;1.67;;;0.90;;
55134;SDS011;41031;44.750;11.308;2023-05-16T12:35:39;1.57;;;0.80;;
55134;SDS011;41031;44.750;11.308;2023-05-16T12:38:12;0.50;;;0.50;;
55134;SDS011;41031;44.750;11.308;2023-05-16T12:40:40;0.97;;;0.70;;
55134;SDS011;41031;44.750;11.308;2023-05-16T12:43:12;1.07;;;0.77;;
55134;SDS011;41031;44.750;11.308;2023-05-16T12:45:52;6.30;;;0.93;;
55134;SDS011;41031;44.750;11.308;2023-05-16T12:48:22;0.40;;;0.40;;
55134;SDS011;41031;44.750;11.308;2023-05-16T12:50:55;5.30;;;0.83;;
55134;SDS011;41031;44.750;11.308;2023-05-16T12:53:22;0.57;;;0.43;;
55134;SDS011;41031;44.750;11.308;2023-05-16T12:55:49;2.80;;;0.57;;
55134;SDS011;41031;44.750;11.308;2023-05-16T12:58:16;1.10;;;0.63;;
55134;SDS011;41031;44.750;11.308;2023-05-16T13:00:43;0.83;;;0.47;;
55134;SDS011;41031;44.750;11.308;2023-05-16T13:03:10;4.20;;;0.90;;
55134;SDS011;41031;44.750;11.308;2023-05-16T13:05:38;0.93;;;0.57;;
55134;SDS011;41031;44.750;11.308;2023-05-16T13:08:07;1.47;;;0.70;;
55134;SDS011;41031;44.750;11.308;2023-05-16T13:10:34;2.53;;;0.63;;
55134;SDS011;41031;44.750;11.308;2023-05-16T13:13:02;4.73;;;0.90;;
55134;SDS011;41031;44.750;11.308;2023-05-16T13:15:29;1.50;;;0.67;;
55134;SDS011;41031;44.750;11.308;2023-05-16T13:17:57;3.50;;;0.73;;
55134;SDS011;41031;44.750;11.308;2023-05-16T13:20:24;1.80;;;0.60;;
55134;SDS011;41031;44.750;11.308;2023-05-16T13:22:54;0.90;;;0.70;;
55134;SDS011;41031;44.750;11.308;2023-05-16T13:25:21;2.27;;;0.60;;
55134;SDS011;41031;44.750;11.308;2023-05-16T13:27:48;1.83;;;0.57;;
55134;SDS011;41031;44.750;11.308;2023-05-16T13:30:15;2.47;;;0.40;;
55134;SDS011;41031;44.750;11.308;2023-05-16T13:32:42;2.00;;;0.80;;
55134;SDS011;41031;44.750;11.308;2023-05-16T13:35:09;1.13;;;0.60;;
55134;SDS011;41031;44.750;11.308;2023-05-16T13:37:38;1.03;;;0.67;;
55134;SDS011;41031;44.750;11.308;2023-05-16T13:40:06;0.40;;;0.40;;
55134;SDS011;41031;44.750;11.308;2023-05-16T13:42:36;0.70;;;0.70;;
55134;SDS011;41031;44.750;11.308;2023-05-16T13:45:05;1.47;;;0.50;;
55134;SDS011;41031;44.750;11.308;2023-05-16T13:47:33;1.97;;;0.67;;
55134;SDS011;41031;44.750;11.308;2023-05-16T13:50:00;1.80;;;0.57;;
55134;SDS011;41031;44.750;11.308;2023-05-16T13:52:35;0.93;;;0.50;;
55134;SDS011;41031;44.750;11.308;2023-05-16T13:55:03;3.33;;;0.60;;
55134;SDS011;41031;44.750;11.308;2023-05-16T13:57:31;0.63;;;0.63;;
55134;SDS011;41031;44.750;11.308;2023-05-16T13:59:58;3.20;;;0.60;;
55134;SDS011;41031;44.750;11.308;2023-05-16T14:02:40;1.23;;;0.47;;
55134;SDS011;41031;44.750;11.308;2023-05-16T14:05:08;0.63;;;0.50;;
55134;SDS011;41031;44.750;11.308;2023-05-16T14:07:35;2.03;;;0.30;;
55134;SDS011;41031;44.750;11.308;2023-05-16T14:10:02;1.10;;;0.53;;
55134;SDS011;41031;44.750;11.308;2023-05-16T14:12:31;1.47;;;0.63;;
55134;SDS011;41031;44.750;11.308;2023-05-16T14:14:58;3.53;;;0.70;;
55134;SDS011;41031;44.750;11.308;2023-05-16T14:17:25;3.43;;;0.77;;
55134;SDS011;41031;44.750;11.308;2023-05-16T14:19:52;0.77;;;0.70;;
55134;SDS011;41031;44.750;11.308;2023-05-16T14:22:19;3.13;;;1.07;;
55134;SDS011;41031;44.750;11.308;2023-05-16T14:24:48;0.57;;;0.57;;
55134;SDS011;41031;44.750;11.308;2023-05-16T14:27:17;0.50;;;0.50;;
55134;SDS011;41031;44.750;11.308;2023-05-16T14:29:47;2.43;;;0.87;;
55134;SDS011;41031;44.750;11.308;2023-05-16T14:32:15;1.57;;;0.60;;
55134;SDS011;41031;44.750;11.308;2023-05-16T14:34:44;0.90;;;0.63;;
55134;SDS011;41031;44.750;11.308;2023-05-16T14:37:12;3.07;;;0.63;;
55134;SDS011;41031;44.750;11.308;2023-05-16T14:39:39;1.50;;;0.70;;
55134;SDS011;41031;44.750;11.308;2023-05-16T14:42:06;1.27;;;0.60;;
55134;SDS011;41031;44.750;11.308;2023-05-16T14:44:34;1.90;;;0.80;;
55134;SDS011;41031;44.750;11.308;2023-05-16T14:47:01;1.60;;;0.43;;
55134;SDS011;41031;44.750;11.308;2023-05-16T14:49:29;5.43;;;0.80;;
55134;SDS011;41031;44.750;11.308;2023-05-16T14:51:59;2.37;;;0.50;;
55134;SDS011;41031;44.750;11.308;2023-05-16T14:54:26;2.07;;;0.50;;
55134;SDS011;41031;44.750;11.308;2023-05-16T14:56:53;1.93;;;0.60;;
55134;SDS011;41031;44.750;11.308;2023-05-16T14:59:21;1.27;;;0.60;;
55134;SDS011;41031;44.750;11.308;2023-05-16T15:01:48;0.40;;;0.33;;
55134;SDS011;41031;44.750;11.308;2023-05-16T15:04:15;3.33;;;0.80;;
55134;SDS011;41031;44.750;11.308;2023-05-16T15:06:42;2.90;;;0.70;;